Time;durP1;ratioP1;P1;durP2;ratioP2;P2;SDS_P1;SDS_P2;PMS_P1;PMS_P2;Temp;Humidity;BMP_temperature;BMP_pressure;BME280_temperature;BME280_humidity;BME280_pressure;Samples;Min_cycle;Max_cycle;Signal;HPM_P1;HPM_P2
2023/05/23 00:01:53;;;;;;;0.00;0.00;;;;;;;;;;5096593;28;20755;-78
2023/05/23 00:04:25;;;;;;;0.00;0.00;;;;;;;;;;5097427;28;20321;-77
2023/05/23 00:06:54;;;;;;;0.00;0.00;;;;;;;;;;5099493;28;20209;-77
2023/05/23 00:09:23;;;;;;;0.00;0.00;;;;;;;;;;5102936;28;20307;-77
2023/05/23 00:11:51;;;;;;;0.00;0.00;;;;;;;;;;5099102;28;20214;-78
2023/05/23 00:14:20;;;;;;;0.00;0.00;;;;;;;;;;5116326;28;20231;-78
2023/05/23 00:16:48;;;;;;;0.00;0.00;;;;;;;;;;5115667;28;20209;-77
2023/05/23 00:19:18;;;;;;;0.00;0.00;;;;;;;;;;5116459;28;20204;-77
2023/05/23 00:21:48;;;;;;;0.00;0.00;;;;;;;;;;5100560;28;20197;-77
2023/05/23 00:24:17;;;;;;;0.00;0.00;;;;;;;;;;5095911;28;20626;-77
2023/05/23 00:26:46;;;;;;;0.00;0.00;;;;;;;;;;5110587;28;20292;-77
2023/05/23 00:29:16;;;;;;;0.00;0.00;;;;;;;;;;5115920;28;20229;-77
2023/05/23 00:31:45;;;;;;;0.00;0.00;;;;;;;;;;5115615;28;20673;-77
2023/05/23 00:34:14;;;;;;;0.00;0.00;;;;;;;;;;5115552;28;20223;-77
2023/05/23 00:36:46;;;;;;;0.00;0.00;;;;;;;;;;5100723;28;20602;-77
2023/05/23 00:39:18;;;;;;;0.00;0.00;;;;;;;;;;5106017;28;20285;-77
2023/05/23 00:41:49;;;;;;;0.00;0.00;;;;;;;;;;5096430;28;20182;-78
2023/05/23 00:44:20;;;;;;;0.00;0.00;;;;;;;;;;5115834;28;20220;-77
2023/05/23 00:46:51;;;;;;;0.00;0.00;;;;;;;;;;5102573;28;20212;-76
2023/05/23 00:49:20;;;;;;;0.00;0.00;;;;;;;;;;5095759;28;20252;-77
2023/05/23 00:51:51;;;;;;;0.00;0.00;;;;;;;;;;5094821;28;20221;-77
2023/05/23 00:54:21;;;;;;;0.00;0.00;;;;;;;;;;5094834;28;20225;-77
2023/05/23 00:56:49;;;;;;;0.00;0.00;;;;;;;;;;5106674;28;20208;-77
2023/05/23 00:59:20;;;;;;;0.00;0.00;;;;;;;;;;5114947;28;20208;-77
2023/05/23 01:01:49;;;;;;;0.00;0.00;;;;;;;;;;5102827;28;20197;-77
2023/05/23 01:04:18;;;;;;;0.00;0.00;;;;;;;;;;5094325;28;20706;-77
2023/05/23 01:06:48;;;;;;;0.00;0.00;;;;;;;;;;5104990;28;20200;-77
2023/05/23 01:09:19;;;;;;;0.00;0.00;;;;;;;;;;5115237;28;20673;-77
2023/05/23 01:11:51;;;;;;;0.00;0.00;;;;;;;;;;5114874;28;20270;-77
2023/05/23 01:14:22;;;;;;;0.00;0.00;;;;;;;;;;5115233;28;20220;-76
2023/05/23 01:16:54;;;;;;;0.00;0.00;;;;;;;;;;5114394;28;20205;-78
2023/05/23 01:19:34;;;;;;;0.00;0.00;;;;;;;;;;5115187;28;20205;-77
2023/05/23 01:22:06;;;;;;;0.00;0.00;;;;;;;;;;5101373;28;20209;-77
2023/05/23 01:24:42;;;;;;;0.00;0.00;;;;;;;;;;5094759;28;20228;-77
2023/05/23 01:27:21;;;;;;;0.00;0.00;;;;;;;;;;5095218;28;20193;-78
2023/05/23 01:29:53;;;;;;;0.00;0.00;;;;;;;;;;5099343;28;20288;-77
2023/05/23 01:32:22;;;;;;;0.00;0.00;;;;;;;;;;5099507;28;20205;-77
2023/05/23 01:34:53;;;;;;;0.00;0.00;;;;;;;;;;5099361;28;20290;-77
2023/05/23 01:37:22;;;;;;;0.00;0.00;;;;;;;;;;5106187;28;20212;-77
2023/05/23 01:39:50;;;;;;;0.00;0.00;;;;;;;;;;5119928;28;20193;-78
2023/05/23 01:42:19;;;;;;;0.00;0.00;;;;;;;;;;5118113;28;20205;-77
2023/05/23 01:44:48;;;;;;;0.00;0.00;;;;;;;;;;5119883;28;20221;-77
2023/05/23 01:47:18;;;;;;;0.00;0.00;;;;;;;;;;5104368;28;20207;-77
2023/05/23 01:49:47;;;;;;;0.00;0.00;;;;;;;;;;5097323;28;20217;-78
2023/05/23 01:52:16;;;;;;;0.00;0.00;;;;;;;;;;5098148;28;20216;-77
2023/05/23 01:54:47;;;;;;;0.00;0.00;;;;;;;;;;5099192;28;20233;-77
2023/05/23 01:57:16;;;;;;;0.00;0.00;;;;;;;;;;5098359;28;20280;-77
2023/05/23 01:59:45;;;;;;;0.00;0.00;;;;;;;;;;5098992;28;20206;-77
2023/05/23 02:02:13;;;;;;;0.00;0.00;;;;;;;;;;5116521;28;20201;-77
2023/05/23 02:04:43;;;;;;;0.00;0.00;;;;;;;;;;5118784;28;20248;-77
2023/05/23 02:07:12;;;;;;;0.00;0.00;;;;;;;;;;5106282;28;20201;-77
2023/05/23 02:09:40;;;;;;;0.00;0.00;;;;;;;;;;5118306;28;20225;-77
2023/05/23 02:12:09;;;;;;;0.00;0.00;;;;;;;;;;5117280;28;20212;-77
2023/05/23 02:14:38;;;;;;;0.00;0.00;;;;;;;;;;5118175;28;20220;-77
2023/05/23 02:17:08;;;;;;;0.00;0.00;;;;;;;;;;5101377;28;20202;-77
2023/05/23 02:19:37;;;;;;;0.00;0.00;;;;;;;;;;5098275;28;20213;-76
2023/05/23 02:22:07;;;;;;;0.00;0.00;;;;;;;;;;5097071;28;20210;-76
2023/05/23 02:24:35;;;;;;;0.00;0.00;;;;;;;;;;5097876;28;20714;-77
2023/05/23 02:27:04;;;;;;;0.00;0.00;;;;;;;;;;5098657;28;20206;-78
2023/05/23 02:29:32;;;;;;;0.00;0.00;;;;;;;;;;5098638;28;20198;-77
2023/05/23 02:32:01;;;;;;;0.00;0.00;;;;;;;;;;5097767;28;20285;-77
2023/05/23 02:34:29;;;;;;;0.00;0.00;;;;;;;;;;5099437;28;20225;-77
2023/05/23 02:36:58;;;;;;;0.00;0.00;;;;;;;;;;5103813;28;20208;-77
2023/05/23 02:39:28;;;;;;;0.00;0.00;;;;;;;;;;5117504;28;20213;-78
2023/05/23 02:41:57;;;;;;;0.00;0.00;;;;;;;;;;5119236;28;20189;-77
2023/05/23 02:44:25;;;;;;;0.00;0.00;;;;;;;;;;5113652;28;20221;-77
2023/05/23 02:46:53;;;;;;;0.00;0.00;;;;;;;;;;5101208;27;20289;-78
2023/05/23 02:49:22;;;;;;;0.00;0.00;;;;;;;;;;5097855;28;20210;-77
2023/05/23 02:51:50;;;;;;;0.00;0.00;;;;;;;;;;5097577;28;20292;-77
2023/05/23 02:54:19;;;;;;;0.00;0.00;;;;;;;;;;5097832;28;20225;-77
2023/05/23 02:56:49;;;;;;;0.00;0.00;;;;;;;;;;5097740;28;20221;-77
2023/05/23 02:59:17;;;;;;;0.00;0.00;;;;;;;;;;5098530;28;20209;-77
2023/05/23 03:01:46;;;;;;;0.00;0.00;;;;;;;;;;5113325;28;20208;-77
2023/05/23 03:04:15;;;;;;;0.00;0.00;;;;;;;;;;5119415;28;20225;-77
2023/05/23 03:06:43;;;;;;;0.00;0.00;;;;;;;;;;5104731;28;20230;-77
2023/05/23 03:09:12;;;;;;;0.00;0.00;;;;;;;;;;5118966;28;20197;-77
2023/05/23 03:11:41;;;;;;;0.00;0.00;;;;;;;;;;5104025;28;20242;-78
2023/05/23 03:14:11;;;;;;;0.00;0.00;;;;;;;;;;5098566;28;20786;-77
2023/05/23 03:16:40;;;;;;;0.00;0.00;;;;;;;;;;5098398;28;20236;-78
2023/05/23 03:19:08;;;;;;;0.00;0.00;;;;;;;;;;5097855;28;20247;-78
2023/05/23 03:21:37;;;;;;;0.00;0.00;;;;;;;;;;5097737;28;20202;-77
2023/05/23 03:24:06;;;;;;;0.00;0.00;;;;;;;;;;5097302;28;20268;-77
2023/05/23 03:26:35;;;;;;;0.00;0.00;;;;;;;;;;5110391;28;20209;-78
2023/05/23 03:29:03;;;;;;;0.00;0.00;;;;;;;;;;5118070;28;20197;-77
2023/05/23 03:31:34;;;;;;;0.00;0.00;;;;;;;;;;5105146;28;20222;-77
2023/05/23 03:34:04;;;;;;;0.00;0.00;;;;;;;;;;5096719;28;20304;-77
2023/05/23 03:36:33;;;;;;;0.00;0.00;;;;;;;;;;5097101;28;20214;-77
2023/05/23 03:39:02;;;;;;;0.00;0.00;;;;;;;;;;5097338;28;20237;-77
2023/05/23 03:41:30;;;;;;;0.00;0.00;;;;;;;;;;5117816;28;20229;-77
2023/05/23 03:43:59;;;;;;;0.00;0.00;;;;;;;;;;5098728;28;20220;-77
2023/05/23 03:46:28;;;;;;;0.00;0.00;;;;;;;;;;5096638;28;20205;-77
2023/05/23 03:48:58;;;;;;;0.00;0.00;;;;;;;;;;5095704;28;20206;-77
2023/05/23 03:51:28;;;;;;;0.00;0.00;;;;;;;;;;5099399;28;20266;-77
2023/05/23 03:53:57;;;;;;;0.00;0.00;;;;;;;;;;5116323;28;20235;-77
2023/05/23 03:56:25;;;;;;;0.00;0.00;;;;;;;;;;5101136;28;20209;-77
2023/05/23 03:58:54;;;;;;;0.00;0.00;;;;;;;;;;5095796;28;20247;-78
2023/05/23 04:01:23;;;;;;;0.00;0.00;;;;;;;;;;5095395;28;20194;-77
2023/05/23 04:03:52;;;;;;;0.00;0.00;;;;;;;;;;5095781;28;20271;-77
2023/05/23 04:06:23;;;;;;;0.00;0.00;;;;;;;;;;5102292;28;20244;-78
2023/05/23 04:08:52;;;;;;;0.00;0.00;;;;;;;;;;5115360;28;20234;-77
2023/05/23 04:11:20;;;;;;;0.00;0.00;;;;;;;;;;5113362;28;20693;-77
2023/05/23 04:13:50;;;;;;;0.00;0.00;;;;;;;;;;5105857;28;20724;-78
2023/05/23 04:16:21;;;;;;;0.00;0.00;;;;;;;;;;5105326;28;20570;-77
2023/05/23 04:18:50;;;;;;;0.00;0.00;;;;;;;;;;5105482;28;20662;-76
2023/05/23 04:21:19;;;;;;;0.00;0.00;;;;;;;;;;5095583;28;20281;-77
2023/05/23 04:23:49;;;;;;;0.00;0.00;;;;;;;;;;5095068;28;20670;-77
2023/05/23 04:26:18;;;;;;;0.00;0.00;;;;;;;;;;5101756;28;20205;-77
2023/05/23 04:28:47;;;;;;;0.00;0.00;;;;;;;;;;5107829;28;20297;-77
2023/05/23 04:31:16;;;;;;;0.00;0.00;;;;;;;;;;5115488;28;20213;-77
2023/05/23 04:33:44;;;;;;;0.00;0.00;;;;;;;;;;5115580;28;20240;-77
2023/05/23 04:36:13;;;;;;;0.00;0.00;;;;;;;;;;5107416;28;20198;-77
2023/05/23 04:38:41;;;;;;;0.00;0.00;;;;;;;;;;5104793;28;20662;-77
2023/05/23 04:41:11;;;;;;;0.00;0.00;;;;;;;;;;5098129;28;20197;-77
2023/05/23 04:43:41;;;;;;;0.00;0.00;;;;;;;;;;5096446;28;20704;-77
2023/05/23 04:46:10;;;;;;;0.00;0.00;;;;;;;;;;5095555;28;20653;-77
2023/05/23 04:48:38;;;;;;;0.00;0.00;;;;;;;;;;5114265;28;20213;-77
2023/05/23 04:51:07;;;;;;;0.00;0.00;;;;;;;;;;5114396;28;20708;-77
2023/05/23 04:53:37;;;;;;;0.00;0.00;;;;;;;;;;5094448;28;20564;-76
2023/05/23 04:56:07;;;;;;;0.00;0.00;;;;;;;;;;5095463;28;20635;-76
2023/05/23 04:58:39;;;;;;;0.00;0.00;;;;;;;;;;5094623;28;20202;-77
2023/05/23 05:01:08;;;;;;;0.00;0.00;;;;;;;;;;5094753;28;20656;-77
2023/05/23 05:03:37;;;;;;;0.00;0.00;;;;;;;;;;5093800;28;20225;-78
2023/05/23 05:06:05;;;;;;;0.00;0.00;;;;;;;;;;5094837;28;20233;-77
2023/05/23 05:08:35;;;;;;;0.00;0.00;;;;;;;;;;5094566;28;20205;-77
2023/05/23 05:11:03;;;;;;;0.00;0.00;;;;;;;;;;5095158;28;22139;-77
2023/05/23 05:13:31;;;;;;;0.00;0.00;;;;;;;;;;5095251;28;20212;-77
2023/05/23 05:16:01;;;;;;;0.00;0.00;;;;;;;;;;5096237;28;20209;-77
2023/05/23 05:18:30;;;;;;;0.00;0.00;;;;;;;;;;5095496;28;20217;-79
2023/05/23 05:20:59;;;;;;;0.00;0.00;;;;;;;;;;5096345;28;20202;-77
2023/05/23 05:23:28;;;;;;;0.00;0.00;;;;;;;;;;5095285;28;20201;-77
2023/05/23 05:25:57;;;;;;;0.00;0.00;;;;;;;;;;5095545;28;20201;-77
2023/05/23 05:28:25;;;;;;;0.00;0.00;;;;;;;;;;5095232;28;20212;-77
2023/05/23 05:30:54;;;;;;;0.00;0.00;;;;;;;;;;5095322;28;20228;-78
2023/05/23 05:33:24;;;;;;;0.00;0.00;;;;;;;;;;5095649;28;20681;-77
2023/05/23 05:35:52;;;;;;;0.00;0.00;;;;;;;;;;5096268;28;20663;-77
2023/05/23 05:38:21;;;;;;;0.00;0.00;;;;;;;;;;5109921;28;20272;-77
2023/05/23 05:40:49;;;;;;;0.00;0.00;;;;;;;;;;5115484;28;20278;-78
2023/05/23 05:43:18;;;;;;;0.00;0.00;;;;;;;;;;5115351;28;20205;-77
2023/05/23 05:45:46;;;;;;;0.00;0.00;;;;;;;;;;5115973;28;20193;-77
2023/05/23 05:48:15;;;;;;;0.00;0.00;;;;;;;;;;5115759;28;20610;-77
2023/05/23 05:50:45;;;;;;;0.00;0.00;;;;;;;;;;5116152;28;20208;-78
2023/05/23 05:53:15;;;;;;;0.00;0.00;;;;;;;;;;5115490;28;20639;-77
2023/05/23 05:55:43;;;;;;;0.00;0.00;;;;;;;;;;5115945;28;20658;-77
2023/05/23 05:58:12;;;;;;;0.00;0.00;;;;;;;;;;5115320;28;20201;-77
2023/05/23 06:00:42;;;;;;;0.00;0.00;;;;;;;;;;5115318;28;20216;-77
2023/05/23 06:03:11;;;;;;;0.00;0.00;;;;;;;;;;5115740;28;20178;-77
2023/05/23 06:05:39;;;;;;;0.00;0.00;;;;;;;;;;5115919;28;20217;-78
2023/05/23 06:08:09;;;;;;;0.00;0.00;;;;;;;;;;5115274;28;20201;-77
2023/05/23 06:10:38;;;;;;;0.00;0.00;;;;;;;;;;5115384;28;20203;-76
2023/05/23 06:13:07;;;;;;;0.00;0.00;;;;;;;;;;5115579;28;20212;-77
2023/05/23 06:15:35;;;;;;;0.00;0.00;;;;;;;;;;5118511;28;20229;-77
2023/05/23 06:18:04;;;;;;;0.00;0.00;;;;;;;;;;5119321;28;20207;-77
2023/05/23 06:20:32;;;;;;;0.00;0.00;;;;;;;;;;5118998;28;20643;-77
2023/05/23 06:23:04;;;;;;;0.00;0.00;;;;;;;;;;5118543;28;20206;-77
2023/05/23 06:25:34;;;;;;;0.00;0.00;;;;;;;;;;5118632;28;20747;-77
2023/05/23 06:28:02;;;;;;;0.00;0.00;;;;;;;;;;5118820;28;20201;-77
2023/05/23 06:30:31;;;;;;;0.00;0.00;;;;;;;;;;5118264;28;20197;-77
2023/05/23 06:32:59;;;;;;;0.00;0.00;;;;;;;;;;5118880;28;20581;-77
2023/05/23 06:35:28;;;;;;;0.00;0.00;;;;;;;;;;5118188;28;20256;-78
2023/05/23 06:37:56;;;;;;;0.00;0.00;;;;;;;;;;5106801;28;20217;-77
2023/05/23 06:40:25;;;;;;;0.00;0.00;;;;;;;;;;5098152;28;20209;-76
2023/05/23 06:42:55;;;;;;;0.00;0.00;;;;;;;;;;5097793;28;20198;-77
2023/05/23 06:45:23;;;;;;;0.00;0.00;;;;;;;;;;5098344;28;20252;-77
2023/05/23 06:47:52;;;;;;;0.00;0.00;;;;;;;;;;5097502;28;20194;-77
2023/05/23 06:50:20;;;;;;;0.00;0.00;;;;;;;;;;5097466;28;20198;-77
2023/05/23 06:52:49;;;;;;;0.00;0.00;;;;;;;;;;5097401;28;20225;-77
2023/05/23 06:55:18;;;;;;;0.00;0.00;;;;;;;;;;5097529;28;20226;-76
2023/05/23 06:57:49;;;;;;;0.00;0.00;;;;;;;;;;5098071;28;20201;-77
2023/05/23 07:00:19;;;;;;;0.00;0.00;;;;;;;;;;5098087;28;20206;-77
2023/05/23 07:02:48;;;;;;;0.00;0.00;;;;;;;;;;5097702;28;20186;-78
2023/05/23 07:05:17;;;;;;;0.00;0.00;;;;;;;;;;5098591;28;20278;-77
2023/05/23 07:07:45;;;;;;;0.00;0.00;;;;;;;;;;5107488;28;20592;-77
2023/05/23 07:10:14;;;;;;;0.00;0.00;;;;;;;;;;5117584;28;20219;-77
2023/05/23 07:12:42;;;;;;;0.00;0.00;;;;;;;;;;5117302;28;20221;-77
2023/05/23 07:15:12;;;;;;;0.00;0.00;;;;;;;;;;5118177;28;20231;-78
2023/05/23 07:17:42;;;;;;;0.00;0.00;;;;;;;;;;5117130;28;20217;-77
2023/05/23 07:20:11;;;;;;;0.00;0.00;;;;;;;;;;5116988;28;20205;-77
2023/05/23 07:22:39;;;;;;;0.00;0.00;;;;;;;;;;5117879;28;20197;-77
2023/05/23 07:25:08;;;;;;;0.00;0.00;;;;;;;;;;5116673;28;20650;-77
2023/05/23 07:27:37;;;;;;;0.00;0.00;;;;;;;;;;5117433;28;20787;-77
2023/05/23 07:30:08;;;;;;;0.00;0.00;;;;;;;;;;5116597;28;20211;-77
2023/05/23 07:32:36;;;;;;;0.00;0.00;;;;;;;;;;5117400;28;20225;-78
2023/05/23 07:35:07;;;;;;;0.00;0.00;;;;;;;;;;5117377;28;20751;-77
2023/05/23 07:37:35;;;;;;;0.00;0.00;;;;;;;;;;5116793;28;20221;-77
2023/05/23 07:40:09;;;;;;;0.00;0.00;;;;;;;;;;5117388;28;20207;-77
2023/05/23 07:42:37;;;;;;;0.00;0.00;;;;;;;;;;5117280;28;20197;-76
2023/05/23 07:45:06;;;;;;;0.00;0.00;;;;;;;;;;5116587;28;20225;-77
2023/05/23 07:47:35;;;;;;;0.00;0.00;;;;;;;;;;5116303;28;20208;-77
2023/05/23 07:50:03;;;;;;;0.00;0.00;;;;;;;;;;5116714;28;20201;-76
2023/05/23 07:52:33;;;;;;;0.00;0.00;;;;;;;;;;5116474;28;20579;-77
2023/05/23 07:55:01;;;;;;;0.00;0.00;;;;;;;;;;5116288;28;20560;-76
2023/05/23 07:57:30;;;;;;;0.00;0.00;;;;;;;;;;5115990;28;20197;-77
2023/05/23 07:59:59;;;;;;;0.00;0.00;;;;;;;;;;5116787;28;20197;-77
2023/05/23 08:02:27;;;;;;;0.00;0.00;;;;;;;;;;5116010;28;20701;-77
2023/05/23 08:04:56;;;;;;;0.00;0.00;;;;;;;;;;5116427;28;20216;-77
2023/05/23 08:07:24;;;;;;;0.00;0.00;;;;;;;;;;5116706;28;20208;-77
2023/05/23 08:09:54;;;;;;;0.00;0.00;;;;;;;;;;5116567;28;20204;-77
2023/05/23 08:12:23;;;;;;;0.00;0.00;;;;;;;;;;5115713;28;20204;-77
2023/05/23 08:14:51;;;;;;;0.00;0.00;;;;;;;;;;5115931;27;20225;-76
2023/05/23 08:17:20;;;;;;;0.00;0.00;;;;;;;;;;5116383;28;20207;-77
2023/05/23 08:19:48;;;;;;;0.00;0.00;;;;;;;;;;5116846;28;20200;-77
2023/05/23 08:22:17;;;;;;;0.00;0.00;;;;;;;;;;5116928;28;20205;-77
2023/05/23 08:24:45;;;;;;;0.00;0.00;;;;;;;;;;5116453;28;20626;-77
2023/05/23 08:27:15;;;;;;;0.00;0.00;;;;;;;;;;5116325;28;20244;-77
2023/05/23 08:29:44;;;;;;;0.00;0.00;;;;;;;;;;5116614;28;20287;-76
2023/05/23 08:32:13;;;;;;;0.00;0.00;;;;;;;;;;5117537;28;20216;-77
2023/05/23 08:34:41;;;;;;;0.00;0.00;;;;;;;;;;5116522;28;20263;-77
2023/05/23 08:37:10;;;;;;;0.00;0.00;;;;;;;;;;5116781;28;20722;-77
2023/05/23 08:39:39;;;;;;;0.00;0.00;;;;;;;;;;5116218;28;20209;-77
2023/05/23 08:42:08;;;;;;;0.00;0.00;;;;;;;;;;5116150;28;20212;-76
2023/05/23 08:44:39;;;;;;;0.00;0.00;;;;;;;;;;5115352;28;20256;-77
2023/05/23 08:47:09;;;;;;;0.00;0.00;;;;;;;;;;5116656;28;20217;-77
2023/05/23 08:49:39;;;;;;;0.00;0.00;;;;;;;;;;5116397;28;20186;-76
2023/05/23 08:52:11;;;;;;;0.00;0.00;;;;;;;;;;5116420;28;20292;-77
2023/05/23 08:54:41;;;;;;;0.00;0.00;;;;;;;;;;5116614;28;20225;-77
2023/05/23 08:57:10;;;;;;;0.00;0.00;;;;;;;;;;5116415;28;20293;-77
2023/05/23 08:59:40;;;;;;;0.00;0.00;;;;;;;;;;5116429;28;20236;-77
2023/05/23 09:02:11;;;;;;;0.00;0.00;;;;;;;;;;5115885;28;20192;-77
2023/05/23 09:04:40;;;;;;;0.00;0.00;;;;;;;;;;5116518;28;20209;-77
2023/05/23 09:07:08;;;;;;;0.00;0.00;;;;;;;;;;5115998;28;20205;-77
2023/05/23 09:09:37;;;;;;;0.00;0.00;;;;;;;;;;5116207;28;20200;-77
2023/05/23 09:12:06;;;;;;;0.00;0.00;;;;;;;;;;5116267;28;20208;-77
2023/05/23 09:14:36;;;;;;;0.00;0.00;;;;;;;;;;5116813;28;20224;-78
2023/05/23 09:17:06;;;;;;;0.00;0.00;;;;;;;;;;5116427;28;20661;-76
2023/05/23 09:19:34;;;;;;;0.00;0.00;;;;;;;;;;5116348;28;20211;-76
2023/05/23 09:22:03;;;;;;;0.00;0.00;;;;;;;;;;5116179;28;20201;-77
2023/05/23 09:24:35;;;;;;;0.00;0.00;;;;;;;;;;5115792;28;20217;-77
2023/05/23 09:27:06;;;;;;;0.00;0.00;;;;;;;;;;5115646;28;20204;-77
2023/05/23 09:29:38;;;;;;;0.00;0.00;;;;;;;;;;5116011;28;20574;-77
2023/05/23 09:32:15;;;;;;;0.00;0.00;;;;;;;;;;5115453;28;20195;-77
2023/05/23 09:34:43;;;;;;;0.00;0.00;;;;;;;;;;5116133;28;20232;-77
2023/05/23 09:37:18;;;;;;;0.00;0.00;;;;;;;;;;5115133;28;20224;-77
2023/05/23 09:39:47;;;;;;;0.00;0.00;;;;;;;;;;5115454;28;20245;-77
2023/05/23 09:42:20;;;;;;;0.00;0.00;;;;;;;;;;5115096;28;20201;-78
2023/05/23 09:44:49;;;;;;;0.00;0.00;;;;;;;;;;5114958;28;20224;-77
2023/05/23 09:47:19;;;;;;;0.00;0.00;;;;;;;;;;5115245;28;20197;-77
2023/05/23 09:49:47;;;;;;;0.00;0.00;;;;;;;;;;5118549;28;20191;-77
2023/05/23 09:52:16;;;;;;;0.00;0.00;;;;;;;;;;5118590;28;20204;-76
2023/05/23 09:54:45;;;;;;;0.00;0.00;;;;;;;;;;5118286;28;20228;-77
2023/05/23 09:57:15;;;;;;;0.00;0.00;;;;;;;;;;5118771;28;20204;-78
2023/05/23 09:59:46;;;;;;;0.00;0.00;;;;;;;;;;5117981;28;20197;-77
2023/05/23 10:02:18;;;;;;;0.00;0.00;;;;;;;;;;5118543;28;20190;-77
2023/05/23 10:04:48;;;;;;;0.00;0.00;;;;;;;;;;5118297;28;20213;-77
2023/05/23 10:07:21;;;;;;;0.00;0.00;;;;;;;;;;5117959;27;20205;-77
2023/05/23 10:09:53;;;;;;;0.00;0.00;;;;;;;;;;5117882;28;20221;-78
2023/05/23 10:12:44;;;;;;;0.00;0.00;;;;;;;;;;5117650;28;20291;-77
2023/05/23 10:15:15;;;;;;;0.00;0.00;;;;;;;;;;5118397;28;20312;-77
2023/05/23 10:17:54;;;;;;;0.00;0.00;;;;;;;;;;5118458;28;20201;-77
2023/05/23 10:20:26;;;;;;;0.00;0.00;;;;;;;;;;5118691;28;20189;-77
2023/05/23 10:22:54;;;;;;;0.00;0.00;;;;;;;;;;5118041;28;20212;-77
2023/05/23 10:25:23;;;;;;;0.00;0.00;;;;;;;;;;5117894;28;20227;-77
2023/05/23 10:27:57;;;;;;;0.00;0.00;;;;;;;;;;5117769;28;20219;-76
2023/05/23 10:30:27;;;;;;;0.00;0.00;;;;;;;;;;5118546;28;20253;-76
2023/05/23 10:32:56;;;;;;;0.00;0.00;;;;;;;;;;5117176;27;20209;-77
2023/05/23 10:35:33;;;;;;;0.00;0.00;;;;;;;;;;5117628;28;20220;-76
2023/05/23 10:38:03;;;;;;;0.00;0.00;;;;;;;;;;5117378;28;20246;-77
2023/05/23 10:40:33;;;;;;;0.00;0.00;;;;;;;;;;5117315;28;20227;-77
2023/05/23 10:43:03;;;;;;;0.00;0.00;;;;;;;;;;5117860;28;20193;-77
2023/05/23 10:45:42;;;;;;;0.00;0.00;;;;;;;;;;5117687;28;20217;-77
2023/05/23 10:48:22;;;;;;;0.00;0.00;;;;;;;;;;5118037;28;20231;-77
2023/05/23 10:51:04;;;;;;;0.00;0.00;;;;;;;;;;5117839;28;20212;-77
2023/05/23 10:53:35;;;;;;;0.00;0.00;;;;;;;;;;5117311;28;20555;-77
2023/05/23 10:56:06;;;;;;;0.00;0.00;;;;;;;;;;5116680;28;20312;-77
2023/05/23 10:58:35;;;;;;;0.00;0.00;;;;;;;;;;5117483;28;20185;-77
2023/05/23 11:01:06;;;;;;;0.00;0.00;;;;;;;;;;5116425;28;20204;-77
2023/05/23 11:03:38;;;;;;;0.00;0.00;;;;;;;;;;5117217;28;20539;-77
2023/05/23 11:06:28;;;;;;;0.00;0.00;;;;;;;;;;5116822;28;20195;-76
2023/05/23 11:09:02;;;;;;;0.00;0.00;;;;;;;;;;5117389;28;20223;-77
2023/05/23 11:11:58;;;;;;;0.00;0.00;;;;;;;;;;5116901;28;20185;-77
2023/05/23 11:14:33;;;;;;;0.00;0.00;;;;;;;;;;5101945;28;20229;-78
2023/05/23 11:17:02;;;;;;;0.00;0.00;;;;;;;;;;5116754;28;20261;-77
2023/05/23 11:19:31;;;;;;;0.00;0.00;;;;;;;;;;5116836;28;20646;-77
2023/05/23 11:22:01;;;;;;;0.00;0.00;;;;;;;;;;5116824;28;20197;-77
2023/05/23 11:24:51;;;;;;;0.00;0.00;;;;;;;;;;5116591;28;20221;-77
2023/05/23 11:27:26;;;;;;;0.00;0.00;;;;;;;;;;5116825;28;20205;-76
2023/05/23 11:29:58;;;;;;;0.00;0.00;;;;;;;;;;5116721;28;20212;-77
2023/05/23 11:32:29;;;;;;;0.00;0.00;;;;;;;;;;5099959;28;20209;-77
2023/05/23 11:34:59;;;;;;;0.00;0.00;;;;;;;;;;5101218;28;20698;-77
2023/05/23 11:37:30;;;;;;;0.00;0.00;;;;;;;;;;5102450;28;20224;-76
2023/05/23 11:39:58;;;;;;;0.00;0.00;;;;;;;;;;5116755;27;20219;-76
2023/05/23 11:42:27;;;;;;;0.00;0.00;;;;;;;;;;5116434;28;20209;-77
2023/05/23 11:44:56;;;;;;;0.00;0.00;;;;;;;;;;5115999;28;20217;-77
2023/05/23 11:47:25;;;;;;;0.00;0.00;;;;;;;;;;5096168;28;20201;-77
2023/05/23 11:49:53;;;;;;;0.00;0.00;;;;;;;;;;5095292;28;20201;-77
2023/05/23 11:52:22;;;;;;;0.00;0.00;;;;;;;;;;5103247;28;20205;-77
2023/05/23 11:54:52;;;;;;;0.00;0.00;;;;;;;;;;5116275;28;20227;-77
2023/05/23 11:57:23;;;;;;;0.00;0.00;;;;;;;;;;5109135;28;20198;-77
2023/05/23 11:59:52;;;;;;;0.00;0.00;;;;;;;;;;5095149;28;20259;-77
2023/05/23 12:02:21;;;;;;;0.00;0.00;;;;;;;;;;5106868;28;20219;-77
2023/05/23 12:04:50;;;;;;;0.00;0.00;;;;;;;;;;5114568;28;20593;-76
2023/05/23 12:07:20;;;;;;;0.00;0.00;;;;;;;;;;5098503;28;20212;-77
2023/05/23 12:09:48;;;;;;;0.00;0.00;;;;;;;;;;5114129;28;20217;-77
2023/05/23 12:12:19;;;;;;;0.00;0.00;;;;;;;;;;5115829;28;20207;-77
2023/05/23 12:14:47;;;;;;;0.00;0.00;;;;;;;;;;5115633;28;20225;-77
2023/05/23 12:17:16;;;;;;;0.00;0.00;;;;;;;;;;5115701;28;20209;-78
2023/05/23 12:19:46;;;;;;;0.00;0.00;;;;;;;;;;5109584;28;20670;-77
2023/05/23 12:22:15;;;;;;;0.00;0.00;;;;;;;;;;5095089;28;20182;-77
2023/05/23 12:24:46;;;;;;;0.00;0.00;;;;;;;;;;5099838;28;20212;-77
2023/05/23 12:27:17;;;;;;;0.00;0.00;;;;;;;;;;5115357;28;20201;-77
2023/05/23 12:29:51;;;;;;;0.00;0.00;;;;;;;;;;5101162;28;20202;-77
2023/05/23 12:32:20;;;;;;;0.00;0.00;;;;;;;;;;5096420;28;20189;-77
2023/05/23 12:34:50;;;;;;;0.00;0.00;;;;;;;;;;5116124;28;20221;-77
2023/05/23 12:37:18;;;;;;;0.00;0.00;;;;;;;;;;5108970;28;20218;-77
2023/05/23 12:39:48;;;;;;;0.00;0.00;;;;;;;;;;5115567;28;20212;-77
2023/05/23 12:42:17;;;;;;;0.00;0.00;;;;;;;;;;5114218;28;20230;-77
2023/05/23 12:44:47;;;;;;;0.00;0.00;;;;;;;;;;5115274;27;20225;-77
2023/05/23 12:47:17;;;;;;;0.00;0.00;;;;;;;;;;5115454;28;20201;-77
2023/05/23 12:49:46;;;;;;;0.00;0.00;;;;;;;;;;5115296;28;20197;-77
2023/05/23 12:52:15;;;;;;;0.00;0.00;;;;;;;;;;5115253;28;20572;-77
2023/05/23 12:54:43;;;;;;;0.00;0.00;;;;;;;;;;5095227;28;20220;-76
2023/05/23 12:57:12;;;;;;;0.00;0.00;;;;;;;;;;5101246;28;20213;-77
2023/05/23 12:59:40;;;;;;;0.00;0.00;;;;;;;;;;5114672;28;20204;-77
2023/05/23 13:02:08;;;;;;;0.00;0.00;;;;;;;;;;5098023;28;20198;-77
2023/05/23 13:04:38;;;;;;;0.00;0.00;;;;;;;;;;5094192;28;20222;-77
2023/05/23 13:07:07;;;;;;;0.00;0.00;;;;;;;;;;5095952;28;20196;-77
2023/05/23 13:09:35;;;;;;;0.00;0.00;;;;;;;;;;5095001;28;20204;-77
2023/05/23 13:12:04;;;;;;;0.00;0.00;;;;;;;;;;5094295;28;20201;-76
2023/05/23 13:14:33;;;;;;;0.00;0.00;;;;;;;;;;5105492;28;20236;-77
2023/05/23 13:17:01;;;;;;;0.00;0.00;;;;;;;;;;5114600;28;20221;-77
2023/05/23 13:19:30;;;;;;;0.00;0.00;;;;;;;;;;5101614;28;20898;-77
2023/05/23 13:22:00;;;;;;;0.00;0.00;;;;;;;;;;5094709;28;20681;-76
2023/05/23 13:24:28;;;;;;;0.00;0.00;;;;;;;;;;5098709;28;20221;-77
2023/05/23 13:26:57;;;;;;;0.00;0.00;;;;;;;;;;5101106;28;20586;-77
2023/05/23 13:29:25;;;;;;;0.00;0.00;;;;;;;;;;5098827;28;20307;-77
2023/05/23 13:31:54;;;;;;;0.00;0.00;;;;;;;;;;5101930;28;20193;-77
2023/05/23 13:34:22;;;;;;;0.00;0.00;;;;;;;;;;5118766;28;20232;-76
2023/05/23 13:36:51;;;;;;;0.00;0.00;;;;;;;;;;5117293;28;20248;-77
2023/05/23 13:39:21;;;;;;;0.00;0.00;;;;;;;;;;5118621;27;20684;-76
2023/05/23 13:41:50;;;;;;;0.00;0.00;;;;;;;;;;5117798;27;20558;-77
2023/05/23 13:44:18;;;;;;;0.00;0.00;;;;;;;;;;5119680;28;20728;-77
2023/05/23 13:46:47;;;;;;;0.00;0.00;;;;;;;;;;5116487;28;20196;-77
2023/05/23 13:49:15;;;;;;;0.00;0.00;;;;;;;;;;5108217;28;20286;-76
2023/05/23 13:51:44;;;;;;;0.00;0.00;;;;;;;;;;5105814;28;20209;-77
2023/05/23 13:54:13;;;;;;;0.00;0.00;;;;;;;;;;5108016;28;20216;-77
2023/05/23 13:56:43;;;;;;;0.00;0.00;;;;;;;;;;5119384;28;20212;-77
2023/05/23 13:59:12;;;;;;;0.00;0.00;;;;;;;;;;5111268;28;20193;-77
2023/05/23 14:01:40;;;;;;;0.00;0.00;;;;;;;;;;5098434;28;20209;-76
2023/05/23 14:04:09;;;;;;;0.00;0.00;;;;;;;;;;5105413;28;20262;-77
2023/05/23 14:06:37;;;;;;;0.00;0.00;;;;;;;;;;5113870;28;20677;-77
2023/05/23 14:09:06;;;;;;;0.00;0.00;;;;;;;;;;5105697;28;20558;-77
2023/05/23 14:11:35;;;;;;;0.00;0.00;;;;;;;;;;5111663;28;20190;-77
2023/05/23 14:14:04;;;;;;;0.00;0.00;;;;;;;;;;5104556;28;20232;-76
2023/05/23 14:16:33;;;;;;;0.00;0.00;;;;;;;;;;5098327;28;20225;-77
2023/05/23 14:19:02;;;;;;;0.00;0.00;;;;;;;;;;5099623;28;20202;-77
2023/05/23 14:21:31;;;;;;;0.00;0.00;;;;;;;;;;5098324;28;20255;-77
2023/05/23 14:23:59;;;;;;;0.00;0.00;;;;;;;;;;5102950;28;20641;-78
2023/05/23 14:26:28;;;;;;;0.00;0.00;;;;;;;;;;5098847;28;20198;-77
2023/05/23 14:28:56;;;;;;;0.00;0.00;;;;;;;;;;5114068;28;20262;-77
2023/05/23 14:31:26;;;;;;;0.00;0.00;;;;;;;;;;5102863;28;20205;-76
2023/05/23 14:33:55;;;;;;;0.00;0.00;;;;;;;;;;5101807;28;20229;-77
2023/05/23 14:36:23;;;;;;;0.00;0.00;;;;;;;;;;5096084;28;20213;-76
2023/05/23 14:38:52;;;;;;;0.00;0.00;;;;;;;;;;5111575;28;20232;-77
2023/05/23 14:41:21;;;;;;;0.00;0.00;;;;;;;;;;5098703;28;20650;-77
2023/05/23 14:43:50;;;;;;;0.00;0.00;;;;;;;;;;5098427;28;20224;-77
2023/05/23 14:46:18;;;;;;;0.00;0.00;;;;;;;;;;5097859;28;20190;-78
2023/05/23 14:48:48;;;;;;;0.00;0.00;;;;;;;;;;5104326;28;20569;-77
2023/05/23 14:51:17;;;;;;;0.00;0.00;;;;;;;;;;5118590;28;20642;-77
2023/05/23 14:54:06;;;;;;;0.00;0.00;;;;;;;;;;5110017;28;20225;-77
2023/05/23 14:56:36;;;;;;;0.00;0.00;;;;;;;;;;5110567;28;20221;-77
2023/05/23 14:59:05;;;;;;;0.00;0.00;;;;;;;;;;5117395;28;20208;-77